Time;durP1;ratioP1;P1;durP2;ratioP2;P2;SDS_P1;SDS_P2;PMS_P1;PMS_P2;Temp;Humidity;BMP_temperature;BMP_pressure;BME280_temperature;BME280_humidity;BME280_pressure;Samples;Min_cycle;Max_cycle;Signal;HPM_P1;HPM_P2
2021/05/02 00:00:31;;;;;;;10.17;5.70;;;;;;;18.69;100.00;93519.59;5033872;28;20643;-85
2021/05/02 00:02:59;;;;;;;9.10;5.03;;;;;;;18.65;100.00;93517.78;5033342;28;20191;-84
2021/05/02 00:05:30;;;;;;;7.03;5.13;;;;;;;18.60;100.00;93510.63;5033242;28;20238;-84
2021/05/02 00:07:58;;;;;;;10.53;5.10;;;;;;;18.80;100.00;93504.38;5033128;28;20190;-84
2021/05/02 00:10:28;;;;;;;12.50;5.80;;;;;;;18.76;100.00;93504.16;5032921;28;20314;-84
2021/05/02 00:12:55;;;;;;;10.33;5.47;;;;;;;18.64;100.00;93513.53;5033209;28;20205;-84
2021/05/02 00:15:23;;;;;;;11.37;5.33;;;;;;;18.57;100.00;93535.13;5033112;28;20286;-84
2021/05/02 00:17:52;;;;;;;11.73;5.70;;;;;;;18.47;100.00;93538.63;5032873;28;20592;-83
2021/05/02 00:20:20;;;;;;;12.20;6.20;;;;;;;18.59;100.00;93538.28;5032587;28;20333;-83
2021/05/02 00:22:51;;;;;;;9.80;4.97;;;;;;;18.71;100.00;93514.00;5032828;28;20582;-84
2021/05/02 00:25:21;;;;;;;14.27;5.67;;;;;;;18.62;100.00;93532.41;5032929;28;20191;-84
2021/05/02 00:27:49;;;;;;;19.23;6.57;;;;;;;18.73;100.00;93539.28;5033197;28;20298;-84
2021/05/02 00:30:18;;;;;;;13.03;5.27;;;;;;;18.77;100.00;93543.00;5032795;28;20229;-84
2021/05/02 00:32:47;;;;;;;8.67;4.87;;;;;;;18.50;100.00;93562.00;5033069;28;20705;-84
2021/05/02 00:35:15;;;;;;;15.13;6.17;;;;;;;18.46;100.00;93552.16;5032973;28;20206;-84
2021/05/02 00:37:43;;;;;;;16.30;5.00;;;;;;;18.53;100.00;93542.84;5033074;28;20285;-84
2021/05/02 00:40:13;;;;;;;9.47;5.23;;;;;;;18.58;100.00;93549.19;5032670;28;20285;-84
2021/05/02 00:42:47;;;;;;;11.90;5.17;;;;;;;18.52;100.00;93556.41;5032586;28;20270;-84
2021/05/02 00:45:20;;;;;;;11.93;5.90;;;;;;;18.69;100.00;93556.06;5032875;28;20194;-84
2021/05/02 00:47:54;;;;;;;9.93;5.33;;;;;;;18.73;100.00;93579.19;5032753;28;20281;-84
2021/05/02 00:50:27;;;;;;;9.73;6.23;;;;;;;18.76;100.00;93594.59;5032620;28;20647;-84
2021/05/02 00:53:28;;;;;;;10.87;5.47;;;;;;;18.52;100.00;93594.44;5032553;28;20193;-83
2021/05/02 00:55:57;;;;;;;16.20;4.97;;;;;;;18.33;100.00;93592.66;5032453;28;20194;-84
2021/05/02 00:58:33;;;;;;;12.27;5.10;;;;;;;18.41;100.00;93581.47;5032228;28;20285;-84
2021/05/02 01:01:02;;;;;;;9.07;4.30;;;;;;;18.49;100.00;93588.84;5032480;28;20190;-84
2021/05/02 01:03:33;;;;;;;10.50;4.80;;;;;;;18.54;100.00;93604.81;5032226;28;20290;-84
2021/05/02 01:06:07;;;;;;;7.77;4.23;;;;;;;18.59;100.00;93625.25;5032007;28;20191;-85
2021/05/02 01:08:36;;;;;;;11.20;4.33;;;;;;;18.62;100.00;93646.00;5032173;28;20197;-84
2021/05/02 01:11:06;;;;;;;12.07;4.37;;;;;;;18.69;100.00;93670.44;5032272;28;20654;-84
2021/05/02 01:13:37;;;;;;;11.07;3.97;;;;;;;18.71;100.00;93692.28;5032324;28;20205;-84
2021/05/02 01:16:08;;;;;;;10.50;4.43;;;;;;;18.60;100.00;93702.16;5031754;28;20233;-84
2021/05/02 01:18:38;;;;;;;10.20;3.80;;;;;;;18.54;100.00;93708.53;5031990;28;20193;-84
2021/05/02 01:21:05;;;;;;;9.70;4.43;;;;;;;18.37;100.00;93713.38;5031805;28;20199;-84
2021/05/02 01:23:35;;;;;;;7.83;4.30;;;;;;;18.23;100.00;93711.25;5031923;28;20199;-85
2021/05/02 01:26:02;;;;;;;11.73;4.07;;;;;;;18.21;100.00;93710.72;5031989;28;20278;-85
2021/05/02 01:28:29;;;;;;;9.40;4.47;;;;;;;18.35;100.00;93699.53;5031861;28;20199;-84
2021/05/02 01:30:57;;;;;;;7.37;4.03;;;;;;;18.36;100.00;93690.50;5031605;28;20601;-85
2021/05/02 01:33:24;;;;;;;10.80;3.90;;;;;;;18.60;100.00;93678.22;5031382;28;20202;-85
2021/05/02 01:35:51;;;;;;;9.23;3.40;;;;;;;18.68;100.00;93690.94;5032139;28;20206;-84
2021/05/02 01:38:22;;;;;;;18.43;4.67;;;;;;;18.91;100.00;93705.53;5031590;28;20286;-84
2021/05/02 01:40:53;;;;;;;9.23;3.97;;;;;;;18.62;100.00;93718.63;5032255;28;20189;-84
2021/05/02 01:43:20;;;;;;;12.07;3.40;;;;;;;18.52;100.00;93722.09;5031719;28;20190;-84
2021/05/02 01:45:47;;;;;;;13.57;4.93;;;;;;;18.62;100.00;93715.97;5031717;28;20202;-84
2021/05/02 01:48:17;;;;;;;14.53;3.73;;;;;;;18.79;100.00;93728.19;5031461;28;20675;-84
2021/05/02 01:50:51;;;;;;;15.93;3.53;;;;;;;18.72;100.00;93744.44;5032189;28;20700;-84
2021/05/02 01:53:18;;;;;;;14.33;4.57;;;;;;;18.84;100.00;93744.13;5031596;28;20183;-85
2021/05/02 01:55:47;;;;;;;12.30;4.07;;;;;;;18.73;100.00;93778.75;5031805;28;20199;-84
2021/05/02 01:58:16;;;;;;;11.60;3.60;;;;;;;18.64;100.00;93793.66;5031277;28;20198;-85
2021/05/02 02:00:50;;;;;;;10.43;4.63;;;;;;;18.42;100.00;93812.53;5031787;28;20203;-84
2021/05/02 02:03:18;;;;;;;14.93;5.07;;;;;;;18.21;100.00;93800.31;5031899;28;20183;-85
2021/05/02 02:05:46;;;;;;;12.60;4.67;;;;;;;18.39;100.00;93786.50;5032115;28;20629;-84
2021/05/02 02:08:13;;;;;;;12.50;5.07;;;;;;;18.46;100.00;93770.25;5031450;28;20230;-84
2021/05/02 02:10:41;;;;;;;10.43;4.43;;;;;;;18.18;100.00;93764.44;5031356;28;20262;-85
2021/05/02 02:13:09;;;;;;;11.93;4.57;;;;;;;18.05;100.00;93743.72;5031402;28;20734;-85
2021/05/02 02:15:39;;;;;;;14.43;4.63;;;;;;;18.11;100.00;93700.09;5031552;28;20738;-85
2021/05/02 02:18:06;;;;;;;15.73;4.40;;;;;;;18.29;100.00;93691.59;5031021;28;20317;-85
2021/05/02 02:20:38;;;;;;;19.23;4.23;;;;;;;18.24;100.00;93704.88;5031490;28;20202;-85
2021/05/02 02:23:09;;;;;;;6.70;4.53;;;;;;;18.27;100.00;93706.22;5031255;28;20183;-84
2021/05/02 02:25:43;;;;;;;13.67;3.93;;;;;;;18.19;100.00;93704.91;5031677;28;20270;-84
2021/05/02 02:28:13;;;;;;;8.63;4.00;;;;;;;18.25;100.00;93706.50;5031442;28;20274;-85
2021/05/02 02:30:43;;;;;;;11.23;3.97;;;;;;;18.18;100.00;93710.47;5031641;28;20314;-84
2021/05/02 02:33:10;;;;;;;14.47;4.40;;;;;;;18.18;100.00;93732.53;5031566;28;20698;-85
2021/05/02 02:35:46;;;;;;;14.80;5.00;;;;;;;18.12;100.00;93749.56;5031424;28;20285;-84
2021/05/02 02:38:15;;;;;;;5.73;3.87;;;;;;;18.12;100.00;93757.53;5031105;28;20186;-84
2021/05/02 02:40:43;;;;;;;13.60;5.23;;;;;;;18.08;100.00;93748.50;5031321;28;20207;-84
2021/05/02 02:43:13;;;;;;;6.70;3.73;;;;;;;18.03;100.00;93745.84;5032408;28;20667;-84
2021/05/02 02:45:41;;;;;;;12.17;4.30;;;;;;;17.99;100.00;93734.94;5034952;28;20245;-84
2021/05/02 02:48:11;;;;;;;16.27;3.97;;;;;;;18.10;100.00;93727.75;5034600;28;20199;-84
2021/05/02 02:50:42;;;;;;;13.73;6.30;;;;;;;17.94;100.00;93736.78;5034449;28;20779;-84
2021/05/02 02:53:12;;;;;;;14.13;5.13;;;;;;;18.01;100.00;93742.63;5034861;28;20270;-84
2021/05/02 02:55:39;;;;;;;15.47;4.83;;;;;;;18.08;100.00;93740.53;5034592;28;20763;-84
2021/05/02 02:58:07;;;;;;;10.70;5.83;;;;;;;18.11;100.00;93742.63;5034388;28;20274;-84
2021/05/02 03:00:35;;;;;;;15.77;5.07;;;;;;;18.03;100.00;93740.53;5034357;28;20234;-84
2021/05/02 03:03:08;;;;;;;12.03;4.70;;;;;;;17.85;100.00;93744.50;5034435;28;20289;-84
2021/05/02 03:05:36;;;;;;;11.57;5.47;;;;;;;17.86;100.00;93742.66;5034656;28;20179;-85
2021/05/02 03:08:05;;;;;;;13.00;4.93;;;;;;;17.90;100.00;93725.09;5034357;28;20257;-84
2021/05/02 03:10:32;;;;;;;10.83;3.97;;;;;;;18.06;100.00;93700.13;5034198;28;20697;-84
2021/05/02 03:12:59;;;;;;;7.37;3.93;;;;;;;17.88;100.00;93690.06;5034209;28;20201;-84
2021/05/02 03:15:26;;;;;;;10.93;5.03;;;;;;;17.81;100.00;93707.03;5034556;28;20195;-84
2021/05/02 03:18:04;;;;;;;13.60;6.27;;;;;;;17.59;100.00;93709.94;5034056;28;20639;-84
2021/05/02 03:20:35;;;;;;;11.70;4.67;;;;;;;17.65;100.00;93696.66;5033946;28;20221;-83
2021/05/02 03:23:08;;;;;;;14.97;5.87;;;;;;;17.85;100.00;93686.06;5033939;28;20225;-84
2021/05/02 03:25:40;;;;;;;13.47;4.43;;;;;;;17.76;100.00;93698.28;5034162;28;20651;-84
2021/05/02 03:28:09;;;;;;;11.10;4.90;;;;;;;17.75;100.00;93713.38;5034084;28;20187;-84
2021/05/02 03:30:36;;;;;;;13.90;7.00;;;;;;;17.89;100.00;93721.66;5033672;28;20258;-84
2021/05/02 03:33:05;;;;;;;17.87;9.97;;;;;;;18.06;100.00;93771.88;5033748;28;20294;-84
2021/05/02 03:35:35;;;;;;;10.70;5.03;;;;;;;18.02;100.00;93795.53;5034425;28;20197;-84
2021/05/02 03:38:10;;;;;;;8.77;4.53;;;;;;;18.22;100.00;93834.63;5033990;28;20203;-84
2021/05/02 03:40:37;;;;;;;8.77;6.77;;;;;;;18.07;100.00;93813.34;5034340;28;20183;-84
2021/05/02 03:43:05;;;;;;;12.97;6.53;;;;;;;18.10;100.00;93817.34;5033856;28;20234;-84
2021/05/02 03:45:32;;;;;;;12.07;5.77;;;;;;;18.07;100.00;93850.56;5033977;28;20256;-84
2021/05/02 03:47:59;;;;;;;13.60;3.80;;;;;;;18.06;100.00;93844.44;5033563;28;20249;-84
2021/05/02 03:50:27;;;;;;;7.63;3.70;;;;;;;18.14;100.00;93839.66;5033971;28;20316;-84
2021/05/02 03:52:54;;;;;;;13.10;4.30;;;;;;;18.19;100.00;93861.75;5033946;28;20195;-84
2021/05/02 03:55:21;;;;;;;9.30;4.90;;;;;;;18.17;100.00;93906.41;5032851;28;20676;-85
2021/05/02 03:57:48;;;;;;;10.67;4.37;;;;;;;18.21;100.00;93925.28;5033849;28;20230;-84
2021/05/02 04:00:16;;;;;;;9.13;5.57;;;;;;;18.30;100.00;93947.63;5033898;28;20663;-84
2021/05/02 04:02:43;;;;;;;9.23;4.83;;;;;;;18.20;100.00;93935.13;5034390;28;20202;-85
2021/05/02 04:05:10;;;;;;;12.13;4.57;;;;;;;18.26;100.00;93946.56;5033949;28;20294;-85
2021/05/02 04:07:38;;;;;;;15.00;4.83;;;;;;;18.23;100.00;93977.13;5033373;28;20297;-85
2021/05/02 04:10:06;;;;;;;7.87;3.27;;;;;;;18.22;100.00;93998.66;5033626;28;20321;-85
2021/05/02 04:12:33;;;;;;;16.47;5.53;;;;;;;18.36;100.00;94034.34;5033221;28;20683;-84
2021/05/02 04:14:59;;;;;;;22.40;15.33;;;;;;;18.50;100.00;94054.06;5033772;28;20234;-85
2021/05/02 04:17:27;;;;;;;13.87;10.47;;;;;;;18.52;100.00;94065.22;5033028;28;20738;-84
2021/05/02 04:19:53;;;;;;;12.27;8.97;;;;;;;18.43;100.00;94042.88;5033549;28;20225;-85
2021/05/02 04:22:21;;;;;;;17.53;11.17;;;;;;;18.44;100.00;94038.34;5033353;28;20199;-84
2021/05/02 04:24:49;;;;;;;10.97;5.40;;;;;;;18.43;100.00;94056.19;5033014;28;20206;-85
2021/05/02 04:27:16;;;;;;;17.00;5.50;;;;;;;18.43;100.00;94074.00;5033046;28;20743;-84
2021/05/02 04:29:43;;;;;;;18.53;5.10;;;;;;;18.65;100.00;94093.22;5033099;28;20272;-84
2021/05/02 04:32:10;;;;;;;9.00;6.30;;;;;;;18.85;100.00;94119.13;5033176;28;20322;-84
2021/05/02 04:34:37;;;;;;;20.30;10.57;;;;;;;18.86;100.00;94131.34;5033841;28;20205;-84
2021/05/02 04:37:04;;;;;;;8.30;4.83;;;;;;;18.77;100.00;94133.72;5032892;28;20281;-83
2021/05/02 04:39:31;;;;;;;7.27;3.40;;;;;;;18.79;100.00;94090.88;5033144;28;20663;-86
2021/05/02 04:41:59;;;;;;;9.03;5.13;;;;;;;18.79;100.00;94068.81;5033100;28;20304;-83
2021/05/02 04:44:26;;;;;;;9.47;3.70;;;;;;;18.89;100.00;94048.31;5033002;28;20303;-84
2021/05/02 04:46:53;;;;;;;11.30;4.17;;;;;;;18.98;100.00;94061.88;5032732;28;20205;-84
2021/05/02 04:49:22;;;;;;;9.87;5.97;;;;;;;19.05;100.00;93974.59;5032828;28;20293;-84
2021/05/02 04:51:50;;;;;;;14.07;9.00;;;;;;;18.95;100.00;93932.03;5032673;28;20198;-84
2021/05/02 04:54:17;;;;;;;16.40;6.57;;;;;;;18.92;100.00;93906.72;5032400;28;20202;-83
2021/05/02 04:56:44;;;;;;;16.73;5.87;;;;;;;18.77;100.00;93882.78;5032292;28;20199;-83
2021/05/02 04:59:24;;;;;;;10.20;4.83;;;;;;;18.75;100.00;93859.09;5032557;28;20277;-83
2021/05/02 05:01:51;;;;;;;14.53;5.87;;;;;;;18.94;100.00;93829.25;5032447;28;20264;-83
2021/05/02 05:04:18;;;;;;;11.87;7.60;;;;;;;18.83;100.00;93822.38;5032183;28;20686;-84
2021/05/02 05:06:45;;;;;;;12.20;6.23;;;;;;;18.93;100.00;93809.03;5032319;28;20241;-84
2021/05/02 05:09:12;;;;;;;15.37;7.20;;;;;;;18.87;100.00;93794.94;5032236;28;20203;-85
2021/05/02 05:11:38;;;;;;;9.37;6.73;;;;;;;18.86;100.00;93768.59;5032521;28;20314;-85
2021/05/02 05:14:05;;;;;;;10.43;5.23;;;;;;;18.88;100.00;93745.19;5032185;28;20191;-84
2021/05/02 05:16:33;;;;;;;8.27;5.10;;;;;;;18.96;100.00;93721.47;5032145;28;20618;-83
2021/05/02 05:19:00;;;;;;;16.60;9.77;;;;;;;19.17;100.00;93695.53;5031856;28;20230;-84
2021/05/02 05:21:27;;;;;;;25.17;15.30;;;;;;;19.25;100.00;93705.59;5031934;28;20653;-84
2021/05/02 05:23:53;;;;;;;28.13;15.23;;;;;;;19.39;100.00;93743.06;5031956;28;20276;-85
2021/05/02 05:26:20;;;;;;;15.10;10.73;;;;;;;19.61;100.00;93768.56;5032264;28;20282;-83
2021/05/02 05:28:47;;;;;;;12.40;7.77;;;;;;;19.80;100.00;93691.44;5031673;28;20282;-85
2021/05/02 05:31:14;;;;;;;12.87;7.03;;;;;;;19.92;100.00;93671.34;5026684;28;20219;-86
2021/05/02 05:33:42;;;;;;;15.43;7.63;;;;;;;19.93;100.00;93629.47;5031835;28;20675;-85
2021/05/02 05:36:09;;;;;;;15.07;7.20;;;;;;;20.04;100.00;93617.63;5022462;28;20258;-87
2021/05/02 05:38:36;;;;;;;13.63;8.17;;;;;;;20.12;100.00;93634.88;5013126;28;20290;-87
2021/05/02 05:41:06;;;;;;;18.20;8.80;;;;;;;20.18;100.00;93661.22;5014435;28;20231;-85
2021/05/02 05:43:33;;;;;;;16.57;9.20;;;;;;;20.23;100.00;93687.06;5023372;28;20289;-86
2021/05/02 05:46:00;;;;;;;11.83;6.00;;;;;;;20.40;100.00;93710.63;5032031;28;20249;-87
2021/05/02 05:48:26;;;;;;;10.40;5.27;;;;;;;20.49;100.00;93778.31;5031918;28;20293;-87
2021/05/02 05:50:54;;;;;;;11.80;3.97;;;;;;;20.66;100.00;93866.00;5033934;28;20326;-87
2021/05/02 05:53:21;;;;;;;10.43;5.07;;;;;;;20.80;100.00;93911.50;5033237;28;20575;-86
2021/05/02 05:55:48;;;;;;;14.83;5.93;;;;;;;20.76;100.00;93905.16;5032059;28;20205;-83
2021/05/02 05:58:15;;;;;;;12.17;5.80;;;;;;;20.83;100.00;93948.34;5020000;28;20291;-78
2021/05/02 06:00:42;;;;;;;8.43;4.50;;;;;;;20.87;100.00;94003.56;5011656;28;20286;-78
2021/05/02 06:03:08;;;;;;;14.60;4.27;;;;;;;21.00;100.00;94034.19;5011803;28;20192;-78
2021/05/02 06:05:35;;;;;;;9.50;4.17;;;;;;;21.31;100.00;94050.78;5011639;28;20294;-76
2021/05/02 06:08:03;;;;;;;12.67;4.93;;;;;;;21.49;100.00;94065.34;5011419;28;20208;-76
2021/05/02 06:10:30;;;;;;;9.63;4.53;;;;;;;21.76;100.00;94104.94;5011555;28;20314;-76
2021/05/02 06:12:56;;;;;;;10.50;4.80;;;;;;;21.98;100.00;94214.13;5011409;28;20762;-76
2021/05/02 06:15:23;;;;;;;13.83;4.90;;;;;;;22.15;100.00;94326.13;5011602;28;20235;-76
2021/05/02 06:17:50;;;;;;;12.17;4.80;;;;;;;22.17;100.00;94440.88;5011755;28;20737;-76
2021/05/02 06:20:17;;;;;;;8.80;3.87;;;;;;;22.34;100.00;94508.22;5015178;28;20719;-76
2021/05/02 06:22:44;;;;;;;7.33;3.60;;;;;;;22.63;100.00;94475.44;5015439;28;20203;-77
2021/05/02 06:25:13;;;;;;;6.27;3.33;;;;;;;22.76;100.00;94564.00;5015522;28;20200;-77
2021/05/02 06:27:39;;;;;;;15.53;4.63;;;;;;;23.04;100.00;94558.25;5014532;28;20200;-77
2021/05/02 06:30:08;;;;;;;10.17;3.87;;;;;;;23.19;100.00;94574.19;5014892;28;20319;-76
2021/05/02 06:32:36;;;;;;;12.97;4.50;;;;;;;23.20;100.00;94540.94;5014983;28;20205;-76
2021/05/02 06:35:03;;;;;;;9.47;3.83;;;;;;;23.45;100.00;94530.03;5015323;28;20255;-77
2021/05/02 06:37:30;;;;;;;12.07;4.17;;;;;;;23.66;100.00;94517.25;5015069;28;20301;-77
2021/05/02 06:39:57;;;;;;;16.50;4.00;;;;;;;23.75;100.00;94549.63;5015362;28;20202;-77
2021/05/02 06:42:25;;;;;;;11.37;3.90;;;;;;;23.72;100.00;94614.56;5014923;28;20208;-77
2021/05/02 06:44:52;;;;;;;13.07;4.47;;;;;;;23.81;100.00;94661.16;5014889;28;20207;-77
2021/05/02 06:47:19;;;;;;;11.37;4.90;;;;;;;23.85;100.00;94624.66;5014579;28;20694;-77
2021/05/02 06:49:46;;;;;;;7.07;3.20;;;;;;;24.06;100.00;94651.28;5014451;28;20199;-76
2021/05/02 06:52:14;;;;;;;9.63;4.10;;;;;;;24.49;100.00;94691.69;5014452;28;20203;-77
2021/05/02 06:54:40;;;;;;;9.13;3.93;;;;;;;24.46;100.00;94701.16;5014751;28;20195;-78
2021/05/02 06:57:07;;;;;;;15.23;5.53;;;;;;;24.60;100.00;94704.75;5014194;28;20199;-79
2021/05/02 06:59:35;;;;;;;14.03;5.30;;;;;;;24.95;100.00;94696.59;5014634;28;20200;-81
2021/05/02 07:02:02;;;;;;;8.90;3.43;;;;;;;24.38;100.00;94713.25;5014405;28;20200;-78
2021/05/02 07:04:33;;;;;;;7.37;3.43;;;;;;;24.46;100.00;94724.53;5014723;28;20290;-80
2021/05/02 07:07:00;;;;;;;7.93;3.50;;;;;;;24.87;100.00;94717.63;5015374;28;20202;-79
2021/05/02 07:09:27;;;;;;;10.93;4.10;;;;;;;24.41;100.00;94707.34;5015467;28;20231;-79
2021/05/02 07:11:54;;;;;;;9.93;4.17;;;;;;;24.62;100.00;94648.06;5015568;28;20707;-78
2021/05/02 07:14:21;;;;;;;7.87;4.10;;;;;;;24.69;100.00;94627.03;5014889;28;20644;-78
2021/05/02 07:16:48;;;;;;;13.63;5.03;;;;;;;24.48;100.00;94596.13;5013908;28;20239;-78
2021/05/02 07:19:15;;;;;;;10.13;3.93;;;;;;;24.29;100.00;94572.69;5014249;28;20243;-79
2021/05/02 07:21:42;;;;;;;20.27;4.33;;;;;;;24.02;100.00;94593.91;5014275;28;20199;-78
2021/05/02 07:24:10;;;;;;;15.70;4.47;;;;;;;23.76;100.00;94583.41;5014159;28;20632;-78
2021/05/02 07:26:37;;;;;;;13.80;4.40;;;;;;;23.57;100.00;94559.16;5014438;28;20227;-78
2021/05/02 07:29:04;;;;;;;7.33;4.27;;;;;;;23.20;100.00;94567.75;5013455;28;20199;-78
2021/05/02 07:31:30;;;;;;;7.30;3.90;;;;;;;22.90;100.00;94537.41;5013437;28;20224;-78
2021/05/02 07:33:58;;;;;;;9.43;3.73;;;;;;;23.28;100.00;94535.00;5013489;28;20599;-78
2021/05/02 07:36:25;;;;;;;9.67;5.30;;;;;;;23.36;100.00;94561.19;5013885;28;20204;-78
2021/05/02 07:38:52;;;;;;;13.87;4.67;;;;;;;23.73;100.00;94568.69;5013843;28;20277;-78
2021/05/02 07:41:19;;;;;;;14.43;4.13;;;;;;;23.93;100.00;94578.44;5013980;28;20615;-78
2021/05/02 07:43:45;;;;;;;8.57;4.10;;;;;;;23.82;100.00;94566.19;5013847;28;20257;-86
2021/05/02 07:46:12;;;;;;;9.07;4.53;;;;;;;23.62;100.00;94582.44;5013854;28;20200;-85
2021/05/02 07:48:39;;;;;;;9.37;4.53;;;;;;;23.49;100.00;94591.94;5013793;28;20195;-86
2021/05/02 07:51:07;;;;;;;17.40;4.90;;;;;;;23.44;100.00;94582.03;5013700;28;20323;-86
2021/05/02 07:53:33;;;;;;;14.37;4.23;;;;;;;23.30;100.00;94562.31;5013767;28;20215;-86
2021/05/02 07:56:00;;;;;;;9.70;3.63;;;;;;;23.14;100.00;94588.44;5013539;28;20199;-86
2021/05/02 07:58:27;;;;;;;15.23;5.63;;;;;;;23.06;100.00;94542.66;5013443;28;20205;-86
2021/05/02 08:00:54;;;;;;;13.50;4.37;;;;;;;23.17;100.00;94480.69;5013784;28;20588;-86
2021/05/02 08:03:21;;;;;;;8.30;5.33;;;;;;;23.34;100.00;94417.81;5013519;28;20226;-86
2021/05/02 08:05:48;;;;;;;11.40;6.83;;;;;;;23.35;100.00;94481.88;5013968;28;20282;-84
2021/05/02 08:08:16;;;;;;;11.27;5.07;;;;;;;23.40;100.00;94543.47;5013598;28;20378;-84
2021/05/02 08:10:43;;;;;;;10.83;3.93;;;;;;;23.40;100.00;94540.00;5013454;28;20255;-84
2021/05/02 08:13:10;;;;;;;10.37;4.43;;;;;;;23.31;100.00;94498.78;5013225;28;20286;-84
2021/05/02 08:15:37;;;;;;;14.33;5.93;;;;;;;23.72;100.00;94475.88;5013401;28;20238;-84
2021/05/02 08:18:04;;;;;;;11.07;4.50;;;;;;;24.22;100.00;94558.00;5012983;28;20708;-84
2021/05/02 08:20:31;;;;;;;10.63;4.20;;;;;;;24.02;100.00;94608.13;5013333;28;20223;-84
2021/05/02 08:22:57;;;;;;;8.40;4.13;;;;;;;24.62;100.00;94631.94;5013053;28;20246;-84
2021/05/02 08:25:25;;;;;;;12.13;4.07;;;;;;;24.61;100.00;94641.88;5013234;28;20203;-84
2021/05/02 08:27:52;;;;;;;7.53;4.53;;;;;;;25.23;100.00;94650.00;5012637;28;20203;-85
2021/05/02 08:30:19;;;;;;;10.97;4.60;;;;;;;26.17;100.00;94603.31;5012888;28;20257;-84
2021/05/02 08:32:46;;;;;;;10.67;5.30;;;;;;;26.15;100.00;94632.47;5013312;28;20338;-85
2021/05/02 08:35:13;;;;;;;9.40;5.47;;;;;;;26.04;100.00;94668.72;5013692;28;20227;-85
2021/05/02 08:37:40;;;;;;;12.07;6.77;;;;;;;25.89;100.00;94687.81;5012852;28;20286;-86
2021/05/02 08:40:09;;;;;;;17.00;8.17;;;;;;;26.50;100.00;94654.47;5012788;28;20203;-84
2021/05/02 08:42:37;;;;;;;16.07;6.30;;;;;;;25.95;100.00;94703.59;5012751;28;20203;-85
2021/05/02 08:45:07;;;;;;;11.07;4.87;;;;;;;25.70;100.00;94715.53;5013233;28;20234;-85
2021/05/02 08:47:36;;;;;;;9.30;4.43;;;;;;;25.56;100.00;94711.94;5012642;28;20711;-85
2021/05/02 08:50:06;;;;;;;15.97;4.43;;;;;;;25.68;100.00;94717.69;5013077;28;20231;-85
2021/05/02 08:52:33;;;;;;;9.43;4.13;;;;;;;25.94;100.00;94736.16;5013112;28;20230;-85
2021/05/02 08:55:00;;;;;;;10.10;4.40;;;;;;;26.17;100.00;94746.03;5013442;28;20373;-86
2021/05/02 08:57:27;;;;;;;37.55;27.08;;;;;;;26.07;100.00;94763.16;5013096;28;20644;-86
2021/05/02 08:59:55;;;;;;;12.85;4.70;;;;;;;26.32;100.00;94799.66;5012459;28;20200;-85
2021/05/02 09:02:23;;;;;;;95.80;85.23;;;;;;;26.46;100.00;94766.56;5012443;28;20196;-85
2021/05/02 09:04:55;;;;;;;48.53;39.05;;;;;;;26.65;100.00;94769.25;5012503;28;20283;-85
2021/05/02 09:07:22;;;;;;;27.80;17.83;;;;;;;26.44;100.00;94777.66;5012360;28;20281;-85
2021/05/02 09:09:50;;;;;;;12.05;7.85;;;;;;;26.58;100.00;94812.75;5012444;28;20248;-85
2021/05/02 09:12:22;;;;;;;15.70;8.55;;;;;;;26.55;100.00;94791.78;5012059;28;20683;-85
2021/05/02 09:14:49;;;;;;;19.08;11.48;;;;;;;26.44;100.00;94811.88;5012681;28;20675;-85
2021/05/02 09:17:25;;;;;;;24.77;14.63;;;;;;;26.47;100.00;94832.88;5012228;28;20242;-85
2021/05/02 09:19:52;;;;;;;16.00;5.20;;;;;;;26.13;100.00;94828.50;5012157;28;20190;-85
2021/05/02 09:22:21;;;;;;;11.85;5.53;;;;;;;26.03;100.00;94821.38;5012086;28;20199;-85
2021/05/02 09:25:03;;;;;;;12.30;5.03;;;;;;;25.99;100.00;94819.56;5012338;28;20269;-86
2021/05/02 09:27:29;;;;;;;14.95;5.28;;;;;;;26.00;100.00;94819.25;5012123;28;20246;-86
2021/05/02 09:30:13;;;;;;;9.05;4.47;;;;;;;25.99;100.00;94846.47;5012449;28;20235;-86
2021/05/02 09:32:44;;;;;;;18.10;5.93;;;;;;;26.05;100.00;94888.41;5012280;28;20183;-85
2021/05/02 09:35:28;;;;;;;12.07;5.65;;;;;;;26.27;100.00;94861.69;5012200;28;20188;-86
2021/05/02 09:38:10;;;;;;;8.23;4.90;;;;;;;26.14;100.00;94867.00;5012099;28;20247;-85
2021/05/02 09:40:51;;;;;;;10.27;4.63;;;;;;;26.52;100.00;94870.50;5012506;28;20655;-86
2021/05/02 09:43:35;;;;;;;6.82;5.28;;;;;;;26.36;100.00;94899.53;5011998;28;20203;-85
2021/05/02 09:46:30;;;;;;;13.98;5.47;;;;;;;26.38;100.00;94810.34;5011883;28;20199;-86
2021/05/02 09:49:15;;;;;;;13.50;6.35;;;;;;;26.16;100.00;94695.97;5012666;28;20626;-86
2021/05/02 09:51:45;;;;;;;14.27;5.53;;;;;;;26.21;100.00;94743.56;5011968;28;20322;-86
2021/05/02 09:54:14;;;;;;;11.55;5.32;;;;;;;26.01;100.00;94744.66;5016938;28;20203;-84
2021/05/02 09:56:48;;;;;;;12.50;5.50;;;;;;;25.94;100.00;94711.94;5018735;28;20384;-86
2021/05/02 09:59:23;;;;;;;11.52;5.68;;;;;;;25.78;100.00;94705.97;5016355;28;20341;-86
2021/05/02 10:02:16;;;;;;;12.23;4.32;;;;;;;26.02;100.00;94630.53;5017554;28;20233;-85
2021/05/02 10:04:48;;;;;;;13.93;6.05;;;;;;;25.95;100.00;94663.22;5015852;28;20197;-85
2021/05/02 10:07:17;;;;;;;9.40;5.55;;;;;;;25.90;100.00;94687.50;5016268;28;20200;-86
2021/05/02 10:09:44;;;;;;;8.40;4.95;;;;;;;25.98;100.00;94634.88;5016886;28;20277;-87
2021/05/02 10:12:13;;;;;;;11.98;6.43;;;;;;;25.88;100.00;94721.22;5028782;28;20227;-87
2021/05/02 10:14:41;;;;;;;14.02;6.80;;;;;;;25.86;100.00;94748.41;5019208;28;20207;-86
2021/05/02 10:17:09;;;;;;;9.27;4.57;;;;;;;25.87;100.00;94751.88;5016021;28;20231;-85
2021/05/02 10:19:36;;;;;;;19.25;14.40;;;;;;;25.85;100.00;94760.25;5015416;28;20282;-86
2021/05/02 10:22:05;;;;;;;13.55;7.35;;;;;;;25.90;100.00;94748.63;5018449;28;20286;-86
2021/05/02 10:24:32;;;;;;;13.48;6.97;;;;;;;26.01;100.00;94693.53;5018524;28;20665;-85
2021/05/02 10:26:59;;;;;;;9.48;5.40;;;;;;;26.07;100.00;94651.97;5018049;28;20292;-85
2021/05/02 10:29:27;;;;;;;13.05;4.75;;;;;;;25.86;100.00;94729.56;5015357;28;20683;-85
2021/05/02 10:32:01;;;;;;;15.32;7.22;;;;;;;25.84;100.00;94729.06;5015130;28;20266;-83
2021/05/02 10:34:32;;;;;;;14.35;5.13;;;;;;;26.34;100.00;94699.72;5015639;28;20194;-87
2021/05/02 10:37:29;;;;;;;14.55;6.18;;;;;;;26.83;100.00;94654.38;5015487;28;20609;-87
2021/05/02 10:39:58;;;;;;;11.13;4.68;;;;;;;27.23;100.00;94677.03;5015647;28;20261;-87
2021/05/02 10:42:39;;;;;;;11.65;4.63;;;;;;;26.97;100.00;94779.19;5015593;28;20204;-86
2021/05/02 10:45:40;;;;;;;11.98;4.57;;;;;;;26.86;100.00;94804.72;5015595;28;20278;-86
2021/05/02 10:48:08;;;;;;;16.42;6.85;;;;;;;26.91;100.00;94774.97;5015139;28;20692;-86
2021/05/02 10:50:37;;;;;;;11.90;4.60;;;;;;;27.27;100.00;94751.66;5015486;28;20223;-86
2021/05/02 10:53:08;;;;;;;16.70;4.13;;;;;;;27.84;100.00;94794.47;5015051;28;20620;-87
2021/05/02 10:55:51;;;;;;;11.50;3.92;;;;;;;28.04;100.00;94831.03;5015291;28;20191;-86
2021/05/02 10:58:22;;;;;;;9.30;4.70;;;;;;;27.35;100.00;94865.34;5015076;28;20192;-87
2021/05/02 11:00:52;;;;;;;14.68;4.95;;;;;;;27.78;100.00;94856.97;5015105;28;20667;-87
2021/05/02 11:04:01;;;;;;;12.15;5.97;;;;;;;27.85;100.00;94877.06;5014888;28;20282;-86
2021/05/02 11:06:53;;;;;;;10.10;4.57;;;;;;;28.07;100.00;94930.34;5014834;28;20194;-86
2021/05/02 11:09:30;;;;;;;13.50;4.78;;;;;;;28.52;100.00;94876.44;5015494;28;20576;-86
2021/05/02 11:11:59;;;;;;;8.60;4.13;;;;;;;29.14;100.00;94954.22;5014917;28;20572;-86
2021/05/02 11:14:35;;;;;;;13.65;6.55;;;;;;;29.50;100.00;94937.88;5014616;28;20203;-86
2021/05/02 11:17:25;;;;;;;12.63;4.70;;;;;;;29.66;100.00;95043.09;5014998;28;20239;-87
2021/05/02 11:19:54;;;;;;;15.65;4.75;;;;;;;29.43;100.00;95093.69;5014977;28;20184;-87
2021/05/02 11:22:22;;;;;;;15.43;4.75;;;;;;;29.34;100.00;95113.38;5014884;28;20609;-87
2021/05/02 11:25:11;;;;;;;10.02;4.03;;;;;;;29.75;100.00;95111.63;5015065;28;20235;-86
2021/05/02 11:30:35;;;;;;;12.75;4.50;;;;;;;29.82;100.00;95139.91;5014654;28;20208;-87
2021/05/02 11:33:20;;;;;;;12.82;4.90;;;;;;;29.59;100.00;95192.44;5014364;28;20191;-87